sensor_id;sensor_type;location;lat;lon;timestamp;P1;durP1;ratioP1;P2;durP2;ratioP2
4674;SDS011;2351;50.812;12.872;2024-01-06T00:02:21;11.60;;;5.20;;
4674;SDS011;2351;50.812;12.872;2024-01-06T00:04:52;8.83;;;4.90;;
4674;SDS011;2351;50.812;12.872;2024-01-06T00:07:25;7.13;;;4.33;;
4674;SDS011;2351;50.812;12.872;2024-01-06T00:09:57;7.87;;;5.30;;
4674;SDS011;2351;50.812;12.872;2024-01-06T00:12:29;5.43;;;4.30;;
4674;SDS011;2351;50.812;12.872;2024-01-06T00:15:00;8.60;;;4.20;;
4674;SDS011;2351;50.812;12.872;2024-01-06T00:17:32;4.87;;;3.53;;
4674;SDS011;2351;50.812;12.872;2024-01-06T00:20:04;5.73;;;3.97;;
4674;SDS011;2351;50.812;12.872;2024-01-06T00:22:38;14.80;;;4.20;;
4674;SDS011;2351;50.812;12.872;2024-01-06T00:25:11;15.60;;;6.27;;
4674;SDS011;2351;50.812;12.872;2024-01-06T00:27:43;10.40;;;5.67;;
4674;SDS011;2351;50.812;12.872;2024-01-06T00:30:15;15.13;;;8.17;;
4674;SDS011;2351;50.812;12.872;2024-01-06T00:32:47;14.57;;;8.10;;
4674;SDS011;2351;50.812;12.872;2024-01-06T00:35:18;11.13;;;6.10;;
4674;SDS011;2351;50.812;12.872;2024-01-06T00:37:51;19.00;;;10.03;;
4674;SDS011;2351;50.812;12.872;2024-01-06T00:40:25;21.10;;;10.87;;
4674;SDS011;2351;50.812;12.872;2024-01-06T00:42:57;18.10;;;9.00;;
4674;SDS011;2351;50.812;12.872;2024-01-06T00:45:29;17.33;;;9.83;;
4674;SDS011;2351;50.812;12.872;2024-01-06T00:48:00;21.23;;;10.50;;
4674;SDS011;2351;50.812;12.872;2024-01-06T00:50:32;19.20;;;10.13;;
4674;SDS011;2351;50.812;12.872;2024-01-06T00:53:05;15.47;;;9.93;;
4674;SDS011;2351;50.812;12.872;2024-01-06T00:55:37;15.70;;;8.20;;
4674;SDS011;2351;50.812;12.872;2024-01-06T00:58:09;16.60;;;8.27;;
4674;SDS011;2351;50.812;12.872;2024-01-06T01:00:40;13.73;;;6.90;;
4674;SDS011;2351;50.812;12.872;2024-01-06T01:03:12;11.60;;;7.60;;
4674;SDS011;2351;50.812;12.872;2024-01-06T01:05:43;12.17;;;6.80;;
4674;SDS011;2351;50.812;12.872;2024-01-06T01:08:16;12.33;;;6.13;;
4674;SDS011;2351;50.812;12.872;2024-01-06T01:10:48;17.40;;;6.57;;
4674;SDS011;2351;50.812;12.872;2024-01-06T01:13:20;9.00;;;5.53;;
4674;SDS011;2351;50.812;12.872;2024-01-06T01:15:51;8.20;;;5.67;;
4674;SDS011;2351;50.812;12.872;2024-01-06T01:18:23;11.27;;;6.00;;
4674;SDS011;2351;50.812;12.872;2024-01-06T01:20:55;10.03;;;5.67;;
4674;SDS011;2351;50.812;12.872;2024-01-06T01:23:28;15.00;;;6.77;;
4674;SDS011;2351;50.812;12.872;2024-01-06T01:26:00;11.83;;;6.77;;
4674;SDS011;2351;50.812;12.872;2024-01-06T01:28:32;13.63;;;6.03;;
4674;SDS011;2351;50.812;12.872;2024-01-06T01:31:03;13.10;;;6.40;;
4674;SDS011;2351;50.812;12.872;2024-01-06T01:33:35;7.23;;;5.30;;
4674;SDS011;2351;50.812;12.872;2024-01-06T01:36:07;17.40;;;5.87;;
4674;SDS011;2351;50.812;12.872;2024-01-06T01:38:40;12.07;;;5.10;;
4674;SDS011;2351;50.812;12.872;2024-01-06T01:41:11;10.80;;;5.93;;
4674;SDS011;2351;50.812;12.872;2024-01-06T01:43:44;7.90;;;4.80;;
4674;SDS011;2351;50.812;12.872;2024-01-06T01:46:17;10.53;;;5.50;;
4674;SDS011;2351;50.812;12.872;2024-01-06T01:48:48;7.90;;;4.80;;
4674;SDS011;2351;50.812;12.872;2024-01-06T01:51:20;9.97;;;5.70;;
4674;SDS011;2351;50.812;12.872;2024-01-06T01:53:54;9.90;;;5.40;;
4674;SDS011;2351;50.812;12.872;2024-01-06T01:56:26;7.50;;;4.60;;
4674;SDS011;2351;50.812;12.872;2024-01-06T01:58:58;9.70;;;5.33;;
4674;SDS011;2351;50.812;12.872;2024-01-06T02:01:31;7.70;;;5.57;;
4674;SDS011;2351;50.812;12.872;2024-01-06T02:04:03;11.43;;;5.27;;
4674;SDS011;2351;50.812;12.872;2024-01-06T02:06:35;9.50;;;5.70;;
4674;SDS011;2351;50.812;12.872;2024-01-06T02:09:08;16.37;;;6.23;;
4674;SDS011;2351;50.812;12.872;2024-01-06T02:11:41;13.50;;;5.17;;
4674;SDS011;2351;50.812;12.872;2024-01-06T02:14:13;8.63;;;5.47;;
4674;SDS011;2351;50.812;12.872;2024-01-06T02:16:44;10.70;;;5.87;;
4674;SDS011;2351;50.812;12.872;2024-01-06T02:19:16;8.40;;;5.30;;
4674;SDS011;2351;50.812;12.872;2024-01-06T02:21:51;12.20;;;6.10;;
4674;SDS011;2351;50.812;12.872;2024-01-06T02:24:23;11.77;;;5.53;;
4674;SDS011;2351;50.812;12.872;2024-01-06T02:26:55;8.90;;;5.37;;
4674;SDS011;2351;50.812;12.872;2024-01-06T02:29:26;7.80;;;5.53;;
4674;SDS011;2351;50.812;12.872;2024-01-06T02:31:58;10.70;;;5.90;;
4674;SDS011;2351;50.812;12.872;2024-01-06T02:34:30;7.97;;;5.07;;
4674;SDS011;2351;50.812;12.872;2024-01-06T02:37:04;10.73;;;5.20;;
4674;SDS011;2351;50.812;12.872;2024-01-06T02:39:35;9.70;;;5.83;;
4674;SDS011;2351;50.812;12.872;2024-01-06T02:42:06;11.47;;;5.17;;
4674;SDS011;2351;50.812;12.872;2024-01-06T02:44:38;8.07;;;5.70;;
4674;SDS011;2351;50.812;12.872;2024-01-06T02:47:10;11.10;;;4.93;;
4674;SDS011;2351;50.812;12.872;2024-01-06T02:49:41;9.70;;;6.00;;
4674;SDS011;2351;50.812;12.872;2024-01-06T02:52:14;11.60;;;5.40;;
4674;SDS011;2351;50.812;12.872;2024-01-06T02:54:46;9.47;;;4.47;;
4674;SDS011;2351;50.812;12.872;2024-01-06T02:57:18;8.83;;;4.60;;
4674;SDS011;2351;50.812;12.872;2024-01-06T02:59:49;10.07;;;6.03;;
4674;SDS011;2351;50.812;12.872;2024-01-06T03:02:21;8.33;;;4.80;;
4674;SDS011;2351;50.812;12.872;2024-01-06T03:04:53;18.80;;;5.60;;
4674;SDS011;2351;50.812;12.872;2024-01-06T03:07:26;9.50;;;5.30;;
4674;SDS011;2351;50.812;12.872;2024-01-06T03:09:58;11.07;;;5.50;;
4674;SDS011;2351;50.812;12.872;2024-01-06T03:12:29;7.50;;;5.00;;
4674;SDS011;2351;50.812;12.872;2024-01-06T03:15:01;6.43;;;4.10;;
4674;SDS011;2351;50.812;12.872;2024-01-06T03:17:33;16.37;;;5.50;;
4674;SDS011;2351;50.812;12.872;2024-01-06T03:20:05;9.70;;;4.67;;
4674;SDS011;2351;50.812;12.872;2024-01-06T03:22:40;6.63;;;5.03;;
4674;SDS011;2351;50.812;12.872;2024-01-06T03:25:13;10.00;;;5.10;;
4674;SDS011;2351;50.812;12.872;2024-01-06T03:27:44;7.47;;;4.20;;
4674;SDS011;2351;50.812;12.872;2024-01-06T03:30:16;5.50;;;4.43;;
4674;SDS011;2351;50.812;12.872;2024-01-06T03:32:48;7.23;;;4.97;;
4674;SDS011;2351;50.812;12.872;2024-01-06T03:35:20;9.13;;;4.57;;
4674;SDS011;2351;50.812;12.872;2024-01-06T03:37:53;8.63;;;4.43;;
4674;SDS011;2351;50.812;12.872;2024-01-06T03:40:25;6.07;;;4.50;;
4674;SDS011;2351;50.812;12.872;2024-01-06T03:42:56;8.07;;;4.50;;
4674;SDS011;2351;50.812;12.872;2024-01-06T03:45:28;9.53;;;4.73;;
4674;SDS011;2351;50.812;12.872;2024-01-06T03:48:00;10.03;;;4.43;;
4674;SDS011;2351;50.812;12.872;2024-01-06T03:50:32;8.53;;;5.13;;
4674;SDS011;2351;50.812;12.872;2024-01-06T03:53:05;5.73;;;4.00;;
4674;SDS011;2351;50.812;12.872;2024-01-06T03:55:36;9.17;;;5.00;;
4674;SDS011;2351;50.812;12.872;2024-01-06T03:58:08;8.90;;;5.53;;
4674;SDS011;2351;50.812;12.872;2024-01-06T04:00:40;6.30;;;5.20;;
4674;SDS011;2351;50.812;12.872;2024-01-06T04:03:11;10.93;;;5.97;;
4674;SDS011;2351;50.812;12.872;2024-01-06T04:05:43;9.87;;;5.63;;
4674;SDS011;2351;50.812;12.872;2024-01-06T04:08:16;13.03;;;5.60;;
4674;SDS011;2351;50.812;12.872;2024-01-06T04:10:48;9.53;;;5.80;;
4674;SDS011;2351;50.812;12.872;2024-01-06T04:13:20;7.40;;;5.30;;
4674;SDS011;2351;50.812;12.872;2024-01-06T04:15:52;9.53;;;5.97;;
4674;SDS011;2351;50.812;12.872;2024-01-06T04:18:23;9.70;;;4.97;;
4674;SDS011;2351;50.812;12.872;2024-01-06T04:20:55;8.67;;;5.33;;
4674;SDS011;2351;50.812;12.872;2024-01-06T04:23:28;6.27;;;4.97;;
4674;SDS011;2351;50.812;12.872;2024-01-06T04:26:00;9.57;;;5.20;;
4674;SDS011;2351;50.812;12.872;2024-01-06T04:28:34;8.83;;;5.30;;
4674;SDS011;2351;50.812;12.872;2024-01-06T04:31:05;8.90;;;5.60;;
4674;SDS011;2351;50.812;12.872;2024-01-06T04:33:37;9.73;;;5.60;;
4674;SDS011;2351;50.812;12.872;2024-01-06T04:36:10;15.33;;;5.63;;
4674;SDS011;2351;50.812;12.872;2024-01-06T04:38:43;6.93;;;4.80;;
4674;SDS011;2351;50.812;12.872;2024-01-06T04:41:15;7.43;;;5.13;;
4674;SDS011;2351;50.812;12.872;2024-01-06T04:43:46;19.47;;;5.60;;
4674;SDS011;2351;50.812;12.872;2024-01-06T04:46:18;17.07;;;7.07;;
4674;SDS011;2351;50.812;12.872;2024-01-06T04:48:50;10.50;;;5.37;;
4674;SDS011;2351;50.812;12.872;2024-01-06T04:51:22;10.10;;;6.13;;
4674;SDS011;2351;50.812;12.872;2024-01-06T04:53:55;11.30;;;6.13;;
4674;SDS011;2351;50.812;12.872;2024-01-06T04:56:27;8.70;;;5.40;;
4674;SDS011;2351;50.812;12.872;2024-01-06T04:58:58;10.00;;;5.70;;
4674;SDS011;2351;50.812;12.872;2024-01-06T05:01:30;10.23;;;5.57;;
4674;SDS011;2351;50.812;12.872;2024-01-06T05:04:02;9.63;;;6.10;;
4674;SDS011;2351;50.812;12.872;2024-01-06T05:06:34;7.67;;;5.43;;
4674;SDS011;2351;50.812;12.872;2024-01-06T05:09:07;9.93;;;6.23;;
4674;SDS011;2351;50.812;12.872;2024-01-06T05:11:39;6.83;;;5.43;;
4674;SDS011;2351;50.812;12.872;2024-01-06T05:14:10;15.50;;;5.03;;
4674;SDS011;2351;50.812;12.872;2024-01-06T05:16:42;17.33;;;5.50;;
4674;SDS011;2351;50.812;12.872;2024-01-06T05:19:14;10.37;;;6.33;;
4674;SDS011;2351;50.812;12.872;2024-01-06T05:21:50;8.03;;;5.70;;
4674;SDS011;2351;50.812;12.872;2024-01-06T05:24:23;8.37;;;5.23;;
4674;SDS011;2351;50.812;12.872;2024-01-06T05:26:54;6.50;;;5.30;;
4674;SDS011;2351;50.812;12.872;2024-01-06T05:29:26;11.87;;;5.87;;
4674;SDS011;2351;50.812;12.872;2024-01-06T05:31:58;10.73;;;6.27;;
4674;SDS011;2351;50.812;12.872;2024-01-06T05:34:29;7.83;;;4.40;;
4674;SDS011;2351;50.812;12.872;2024-01-06T05:37:01;14.40;;;5.70;;
4674;SDS011;2351;50.812;12.872;2024-01-06T05:39:35;11.30;;;5.60;;
4674;SDS011;2351;50.812;12.872;2024-01-06T05:42:09;8.33;;;5.80;;
4674;SDS011;2351;50.812;12.872;2024-01-06T05:44:42;9.13;;;5.33;;
4674;SDS011;2351;50.812;12.872;2024-01-06T05:47:14;18.90;;;5.97;;
4674;SDS011;2351;50.812;12.872;2024-01-06T05:49:46;8.17;;;5.70;;
4674;SDS011;2351;50.812;12.872;2024-01-06T05:52:18;11.40;;;5.93;;
4674;SDS011;2351;50.812;12.872;2024-01-06T05:54:51;23.30;;;6.07;;
4674;SDS011;2351;50.812;12.872;2024-01-06T05:57:23;14.67;;;6.40;;
4674;SDS011;2351;50.812;12.872;2024-01-06T05:59:55;11.63;;;6.00;;
4674;SDS011;2351;50.812;12.872;2024-01-06T06:02:29;10.73;;;6.00;;
4674;SDS011;2351;50.812;12.872;2024-01-06T06:05:02;10.30;;;6.00;;
4674;SDS011;2351;50.812;12.872;2024-01-06T06:07:34;10.97;;;5.43;;
4674;SDS011;2351;50.812;12.872;2024-01-06T06:10:10;14.43;;;5.80;;
4674;SDS011;2351;50.812;12.872;2024-01-06T06:12:42;8.67;;;4.77;;
4674;SDS011;2351;50.812;12.872;2024-01-06T06:15:14;7.27;;;5.00;;
4674;SDS011;2351;50.812;12.872;2024-01-06T06:17:45;8.13;;;5.27;;
4674;SDS011;2351;50.812;12.872;2024-01-06T06:20:17;10.20;;;4.90;;
4674;SDS011;2351;50.812;12.872;2024-01-06T06:22:49;12.63;;;5.83;;
4674;SDS011;2351;50.812;12.872;2024-01-06T06:25:22;11.43;;;5.77;;
4674;SDS011;2351;50.812;12.872;2024-01-06T06:27:54;12.53;;;4.70;;
4674;SDS011;2351;50.812;12.872;2024-01-06T06:30:26;12.00;;;5.47;;
4674;SDS011;2351;50.812;12.872;2024-01-06T06:32:57;6.97;;;5.40;;
4674;SDS011;2351;50.812;12.872;2024-01-06T06:35:29;9.20;;;5.70;;
4674;SDS011;2351;50.812;12.872;2024-01-06T06:38:01;7.87;;;5.60;;
4674;SDS011;2351;50.812;12.872;2024-01-06T06:40:34;11.73;;;5.90;;
4674;SDS011;2351;50.812;12.872;2024-01-06T06:43:05;11.13;;;6.07;;
4674;SDS011;2351;50.812;12.872;2024-01-06T06:45:38;13.27;;;6.83;;
4674;SDS011;2351;50.812;12.872;2024-01-06T06:48:10;12.97;;;7.30;;
4674;SDS011;2351;50.812;12.872;2024-01-06T06:50:41;13.43;;;7.30;;
4674;SDS011;2351;50.812;12.872;2024-01-06T06:53:13;13.07;;;6.37;;
4674;SDS011;2351;50.812;12.872;2024-01-06T06:55:46;81.93;;;8.00;;
4674;SDS011;2351;50.812;12.872;2024-01-06T06:58:18;11.33;;;5.90;;
4674;SDS011;2351;50.812;12.872;2024-01-06T07:00:50;12.87;;;6.50;;
4674;SDS011;2351;50.812;12.872;2024-01-06T07:03:24;10.70;;;6.43;;
4674;SDS011;2351;50.812;12.872;2024-01-06T07:05:57;13.50;;;7.10;;
4674;SDS011;2351;50.812;12.872;2024-01-06T07:08:28;14.40;;;7.50;;
4674;SDS011;2351;50.812;12.872;2024-01-06T07:11:02;14.80;;;6.87;;
4674;SDS011;2351;50.812;12.872;2024-01-06T07:13:33;12.57;;;7.00;;
4674;SDS011;2351;50.812;12.872;2024-01-06T07:16:05;17.17;;;7.57;;
4674;SDS011;2351;50.812;12.872;2024-01-06T07:18:37;14.83;;;7.60;;
4674;SDS011;2351;50.812;12.872;2024-01-06T07:21:09;15.00;;;7.77;;
4674;SDS011;2351;50.812;12.872;2024-01-06T07:23:42;13.70;;;7.60;;
4674;SDS011;2351;50.812;12.872;2024-01-06T07:26:15;14.73;;;8.83;;
4674;SDS011;2351;50.812;12.872;2024-01-06T07:28:47;15.03;;;8.63;;
4674;SDS011;2351;50.812;12.872;2024-01-06T07:31:19;12.07;;;8.10;;
4674;SDS011;2351;50.812;12.872;2024-01-06T07:33:51;14.33;;;8.00;;
4674;SDS011;2351;50.812;12.872;2024-01-06T07:36:22;16.00;;;8.57;;
4674;SDS011;2351;50.812;12.872;2024-01-06T07:38:54;16.13;;;8.03;;
4674;SDS011;2351;50.812;12.872;2024-01-06T07:41:27;17.60;;;8.83;;
4674;SDS011;2351;50.812;12.872;2024-01-06T07:44:00;26.83;;;11.20;;
4674;SDS011;2351;50.812;12.872;2024-01-06T07:46:32;19.73;;;9.83;;
4674;SDS011;2351;50.812;12.872;2024-01-06T07:49:05;21.60;;;11.40;;
4674;SDS011;2351;50.812;12.872;2024-01-06T07:51:37;23.27;;;13.10;;
4674;SDS011;2351;50.812;12.872;2024-01-06T07:54:09;19.53;;;11.70;;
4674;SDS011;2351;50.812;12.872;2024-01-06T07:56:43;23.73;;;13.00;;
4674;SDS011;2351;50.812;12.872;2024-01-06T07:59:15;21.17;;;11.80;;
4674;SDS011;2351;50.812;12.872;2024-01-06T08:01:47;17.40;;;10.37;;
4674;SDS011;2351;50.812;12.872;2024-01-06T08:04:18;28.30;;;11.50;;
4674;SDS011;2351;50.812;12.872;2024-01-06T08:06:50;19.13;;;10.33;;
4674;SDS011;2351;50.812;12.872;2024-01-06T08:09:22;20.37;;;8.87;;
4674;SDS011;2351;50.812;12.872;2024-01-06T08:11:55;15.40;;;8.70;;
4674;SDS011;2351;50.812;12.872;2024-01-06T08:14:27;18.17;;;11.30;;
4674;SDS011;2351;50.812;12.872;2024-01-06T08:16:59;15.80;;;9.80;;
4674;SDS011;2351;50.812;12.872;2024-01-06T08:19:31;15.27;;;8.03;;
4674;SDS011;2351;50.812;12.872;2024-01-06T08:22:03;16.63;;;8.83;;
4674;SDS011;2351;50.812;12.872;2024-01-06T08:24:35;21.13;;;9.77;;
4674;SDS011;2351;50.812;12.872;2024-01-06T08:27:08;20.20;;;9.20;;
4674;SDS011;2351;50.812;12.872;2024-01-06T08:29:39;22.93;;;9.50;;
4674;SDS011;2351;50.812;12.872;2024-01-06T08:32:11;16.90;;;9.50;;
4674;SDS011;2351;50.812;12.872;2024-01-06T08:34:45;18.50;;;8.57;;
4674;SDS011;2351;50.812;12.872;2024-01-06T08:37:16;19.90;;;9.93;;
4674;SDS011;2351;50.812;12.872;2024-01-06T08:39:48;15.67;;;9.50;;
4674;SDS011;2351;50.812;12.872;2024-01-06T08:42:21;18.30;;;10.43;;
4674;SDS011;2351;50.812;12.872;2024-01-06T08:44:54;18.27;;;10.90;;
4674;SDS011;2351;50.812;12.872;2024-01-06T08:47:26;15.40;;;10.03;;
4674;SDS011;2351;50.812;12.872;2024-01-06T08:49:57;16.30;;;10.70;;
4674;SDS011;2351;50.812;12.872;2024-01-06T08:52:29;18.90;;;10.93;;
4674;SDS011;2351;50.812;12.872;2024-01-06T08:55:01;19.87;;;11.40;;
4674;SDS011;2351;50.812;12.872;2024-01-06T08:57:34;15.13;;;10.60;;
4674;SDS011;2351;50.812;12.872;2024-01-06T09:00:06;15.33;;;9.57;;
4674;SDS011;2351;50.812;12.872;2024-01-06T09:02:39;13.70;;;9.00;;
4674;SDS011;2351;50.812;12.872;2024-01-06T09:05:11;16.30;;;9.23;;
4674;SDS011;2351;50.812;12.872;2024-01-06T09:07:42;13.17;;;8.40;;
4674;SDS011;2351;50.812;12.872;2024-01-06T09:10:19;17.57;;;9.43;;
4674;SDS011;2351;50.812;12.872;2024-01-06T09:12:52;12.90;;;8.97;;
4674;SDS011;2351;50.812;12.872;2024-01-06T09:15:24;13.50;;;8.27;;
4674;SDS011;2351;50.812;12.872;2024-01-06T09:17:55;25.87;;;9.70;;
4674;SDS011;2351;50.812;12.872;2024-01-06T09:20:27;14.50;;;9.30;;
4674;SDS011;2351;50.812;12.872;2024-01-06T09:22:58;13.43;;;7.63;;
4674;SDS011;2351;50.812;12.872;2024-01-06T09:25:30;14.80;;;8.40;;
4674;SDS011;2351;50.812;12.872;2024-01-06T09:28:04;14.23;;;7.37;;
4674;SDS011;2351;50.812;12.872;2024-01-06T09:30:36;11.07;;;7.27;;
4674;SDS011;2351;50.812;12.872;2024-01-06T09:33:08;17.93;;;8.20;;
4674;SDS011;2351;50.812;12.872;2024-01-06T09:35:40;15.90;;;7.80;;
4674;SDS011;2351;50.812;12.872;2024-01-06T09:38:11;12.77;;;6.10;;
4674;SDS011;2351;50.812;12.872;2024-01-06T09:40:43;12.47;;;7.50;;
4674;SDS011;2351;50.812;12.872;2024-01-06T09:43:17;13.40;;;8.00;;
4674;SDS011;2351;50.812;12.872;2024-01-06T09:45:51;15.43;;;7.70;;
4674;SDS011;2351;50.812;12.872;2024-01-06T09:48:28;13.00;;;7.67;;
4674;SDS011;2351;50.812;12.872;2024-01-06T09:51:02;12.13;;;7.77;;
4674;SDS011;2351;50.812;12.872;2024-01-06T09:53:35;12.23;;;7.43;;
4674;SDS011;2351;50.812;12.872;2024-01-06T09:56:11;13.40;;;7.57;;
4674;SDS011;2351;50.812;12.872;2024-01-06T09:58:46;13.17;;;7.50;;
4674;SDS011;2351;50.812;12.872;2024-01-06T10:01:18;11.90;;;7.60;;
4674;SDS011;2351;50.812;12.872;2024-01-06T10:03:51;13.30;;;7.50;;
4674;SDS011;2351;50.812;12.872;2024-01-06T10:06:22;10.67;;;7.60;;
4674;SDS011;2351;50.812;12.872;2024-01-06T10:08:55;10.37;;;7.70;;
4674;SDS011;2351;50.812;12.872;2024-01-06T10:11:27;9.63;;;7.17;;
4674;SDS011;2351;50.812;12.872;2024-01-06T10:14:01;16.90;;;8.00;;
4674;SDS011;2351;50.812;12.872;2024-01-06T10:16:34;17.03;;;7.63;;
4674;SDS011;2351;50.812;12.872;2024-01-06T10:19:06;10.03;;;7.17;;
4674;SDS011;2351;50.812;12.872;2024-01-06T10:21:38;13.10;;;7.20;;
4674;SDS011;2351;50.812;12.872;2024-01-06T10:24:10;15.73;;;7.57;;
4674;SDS011;2351;50.812;12.872;2024-01-06T10:26:42;12.37;;;6.80;;
4674;SDS011;2351;50.812;12.872;2024-01-06T10:29:15;13.83;;;8.30;;
4674;SDS011;2351;50.812;12.872;2024-01-06T10:31:47;11.13;;;7.00;;
4674;SDS011;2351;50.812;12.872;2024-01-06T10:34:19;9.43;;;6.27;;
4674;SDS011;2351;50.812;12.872;2024-01-06T10:36:51;13.53;;;6.10;;
4674;SDS011;2351;50.812;12.872;2024-01-06T10:39:23;9.70;;;6.13;;
4674;SDS011;2351;50.812;12.872;2024-01-06T10:41:54;8.53;;;5.93;;
4674;SDS011;2351;50.812;12.872;2024-01-06T10:44:27;19.67;;;7.27;;
4674;SDS011;2351;50.812;12.872;2024-01-06T10:47:02;8.80;;;5.83;;
4674;SDS011;2351;50.812;12.872;2024-01-06T10:49:35;14.27;;;7.07;;
4674;SDS011;2351;50.812;12.872;2024-01-06T10:52:08;9.63;;;6.47;;
4674;SDS011;2351;50.812;12.872;2024-01-06T10:54:40;10.30;;;5.63;;
4674;SDS011;2351;50.812;12.872;2024-01-06T10:57:12;11.30;;;7.97;;
4674;SDS011;2351;50.812;12.872;2024-01-06T10:59:46;20.87;;;13.17;;
4674;SDS011;2351;50.812;12.872;2024-01-06T11:02:21;15.33;;;8.17;;
4674;SDS011;2351;50.812;12.872;2024-01-06T11:04:55;15.13;;;8.37;;
4674;SDS011;2351;50.812;12.872;2024-01-06T11:07:26;16.73;;;8.33;;
4674;SDS011;2351;50.812;12.872;2024-01-06T11:10:01;16.07;;;6.83;;
4674;SDS011;2351;50.812;12.872;2024-01-06T11:12:36;9.20;;;6.00;;
4674;SDS011;2351;50.812;12.872;2024-01-06T11:15:09;11.40;;;6.50;;
4674;SDS011;2351;50.812;12.872;2024-01-06T11:17:50;11.30;;;7.30;;
4674;SDS011;2351;50.812;12.872;2024-01-06T11:20:25;18.50;;;6.87;;
4674;SDS011;2351;50.812;12.872;2024-01-06T11:22:58;13.20;;;7.13;;
4674;SDS011;2351;50.812;12.872;2024-01-06T11:25:49;10.07;;;6.60;;
4674;SDS011;2351;50.812;12.872;2024-01-06T11:28:21;11.17;;;7.00;;
4674;SDS011;2351;50.812;12.872;2024-01-06T11:31:05;12.60;;;7.10;;
4674;SDS011;2351;50.812;12.872;2024-01-06T11:33:42;17.60;;;7.93;;
4674;SDS011;2351;50.812;12.872;2024-01-06T11:36:14;13.60;;;6.67;;
4674;SDS011;2351;50.812;12.872;2024-01-06T11:38:46;13.53;;;7.07;;
4674;SDS011;2351;50.812;12.872;2024-01-06T11:44:18;15.47;;;7.70;;
4674;SDS011;2351;50.812;12.872;2024-01-06T11:46:52;12.73;;;7.40;;
4674;SDS011;2351;50.812;12.872;2024-01-06T11:49:27;12.00;;;7.30;;
4674;SDS011;2351;50.812;12.872;2024-01-06T11:51:59;10.03;;;6.70;;
4674;SDS011;2351;50.812;12.872;2024-01-06T11:54:31;13.10;;;7.00;;
4674;SDS011;2351;50.812;12.872;2024-01-06T11:57:04;10.57;;;7.23;;
4674;SDS011;2351;50.812;12.872;2024-01-06T11:59:35;15.30;;;8.73;;
4674;SDS011;2351;50.812;12.872;2024-01-06T12:02:11;12.20;;;7.93;;
4674;SDS011;2351;50.812;12.872;2024-01-06T12:04:47;12.90;;;7.07;;
4674;SDS011;2351;50.812;12.872;2024-01-06T12:07:20;22.27;;;7.87;;
4674;SDS011;2351;50.812;12.872;2024-01-06T12:10:00;12.27;;;7.00;;
4674;SDS011;2351;50.812;12.872;2024-01-06T12:12:32;15.93;;;8.80;;
4674;SDS011;2351;50.812;12.872;2024-01-06T12:15:05;11.60;;;7.57;;
4674;SDS011;2351;50.812;12.872;2024-01-06T12:17:41;10.73;;;6.57;;
4674;SDS011;2351;50.812;12.872;2024-01-06T12:20:13;9.87;;;6.87;;
4674;SDS011;2351;50.812;12.872;2024-01-06T12:22:45;14.77;;;7.60;;
4674;SDS011;2351;50.812;12.872;2024-01-06T12:25:17;12.93;;;7.50;;
4674;SDS011;2351;50.812;12.872;2024-01-06T12:27:49;12.47;;;8.07;;
4674;SDS011;2351;50.812;12.872;2024-01-06T12:30:22;15.83;;;6.60;;
4674;SDS011;2351;50.812;12.872;2024-01-06T12:32:57;11.03;;;7.00;;
4674;SDS011;2351;50.812;12.872;2024-01-06T12:35:29;10.80;;;6.60;;
4674;SDS011;2351;50.812;12.872;2024-01-06T12:38:01;12.33;;;7.00;;
4674;SDS011;2351;50.812;12.872;2024-01-06T12:40:35;11.40;;;7.10;;
4674;SDS011;2351;50.812;12.872;2024-01-06T12:43:08;11.40;;;6.00;;
4674;SDS011;2351;50.812;12.872;2024-01-06T12:45:39;13.73;;;7.50;;
4674;SDS011;2351;50.812;12.872;2024-01-06T12:48:12;11.27;;;7.13;;
4674;SDS011;2351;50.812;12.872;2024-01-06T12:50:44;12.97;;;6.77;;
4674;SDS011;2351;50.812;12.872;2024-01-06T12:53:16;16.43;;;6.80;;
4674;SDS011;2351;50.812;12.872;2024-01-06T12:55:48;19.20;;;7.33;;
4674;SDS011;2351;50.812;12.872;2024-01-06T12:58:19;10.20;;;6.23;;
4674;SDS011;2351;50.812;12.872;2024-01-06T13:00:51;12.03;;;7.20;;
4674;SDS011;2351;50.812;12.872;2024-01-06T13:03:24;11.60;;;6.67;;
4674;SDS011;2351;50.812;12.872;2024-01-06T13:05:56;9.87;;;6.70;;
4674;SDS011;2351;50.812;12.872;2024-01-06T13:08:28;11.27;;;7.90;;
4674;SDS011;2351;50.812;12.872;2024-01-06T13:10:59;11.03;;;7.47;;
4674;SDS011;2351;50.812;12.872;2024-01-06T13:13:31;17.23;;;7.90;;
4674;SDS011;2351;50.812;12.872;2024-01-06T13:16:03;10.30;;;7.50;;
4674;SDS011;2351;50.812;12.872;2024-01-06T13:18:36;13.50;;;7.93;;
4674;SDS011;2351;50.812;12.872;2024-01-06T13:21:08;17.07;;;8.90;;
4674;SDS011;2351;50.812;12.872;2024-01-06T13:23:40;16.50;;;8.07;;
4674;SDS011;2351;50.812;12.872;2024-01-06T13:26:11;14.00;;;8.03;;
4674;SDS011;2351;50.812;12.872;2024-01-06T13:28:43;17.17;;;8.93;;
4674;SDS011;2351;50.812;12.872;2024-01-06T13:31:15;15.40;;;9.17;;
4674;SDS011;2351;50.812;12.872;2024-01-06T13:33:48;11.87;;;8.90;;
4674;SDS011;2351;50.812;12.872;2024-01-06T13:36:22;18.10;;;9.30;;
4674;SDS011;2351;50.812;12.872;2024-01-06T13:38:54;28.40;;;14.30;;
4674;SDS011;2351;50.812;12.872;2024-01-06T13:41:26;25.70;;;11.50;;
4674;SDS011;2351;50.812;12.872;2024-01-06T13:43:58;23.73;;;12.07;;
4674;SDS011;2351;50.812;12.872;2024-01-06T13:46:29;18.70;;;9.90;;
4674;SDS011;2351;50.812;12.872;2024-01-06T13:49:02;14.90;;;9.30;;
4674;SDS011;2351;50.812;12.872;2024-01-06T13:51:34;14.20;;;9.43;;
4674;SDS011;2351;50.812;12.872;2024-01-06T13:54:06;14.10;;;9.33;;
4674;SDS011;2351;50.812;12.872;2024-01-06T13:56:38;17.50;;;8.40;;
4674;SDS011;2351;50.812;12.872;2024-01-06T13:59:09;11.60;;;7.87;;
4674;SDS011;2351;50.812;12.872;2024-01-06T14:01:41;14.30;;;8.77;;
4674;SDS011;2351;50.812;12.872;2024-01-06T14:04:14;21.90;;;9.90;;
4674;SDS011;2351;50.812;12.872;2024-01-06T14:06:47;17.03;;;9.27;;
4674;SDS011;2351;50.812;12.872;2024-01-06T14:09:24;15.07;;;9.20;;
4674;SDS011;2351;50.812;12.872;2024-01-06T14:11:55;15.83;;;9.70;;
4674;SDS011;2351;50.812;12.872;2024-01-06T14:14:27;19.80;;;10.40;;
4674;SDS011;2351;50.812;12.872;2024-01-06T14:16:59;18.10;;;10.17;;
4674;SDS011;2351;50.812;12.872;2024-01-06T14:19:32;18.97;;;11.63;;
4674;SDS011;2351;50.812;12.872;2024-01-06T14:22:04;37.03;;;12.20;;
4674;SDS011;2351;50.812;12.872;2024-01-06T14:24:36;19.40;;;10.60;;
4674;SDS011;2351;50.812;12.872;2024-01-06T14:27:07;20.73;;;11.53;;
4674;SDS011;2351;50.812;12.872;2024-01-06T14:29:40;17.60;;;10.17;;
4674;SDS011;2351;50.812;12.872;2024-01-06T14:32:12;17.30;;;10.63;;
4674;SDS011;2351;50.812;12.872;2024-01-06T14:34:45;16.30;;;8.90;;
4674;SDS011;2351;50.812;12.872;2024-01-06T14:37:17;19.03;;;11.10;;
4674;SDS011;2351;50.812;12.872;2024-01-06T14:39:49;27.23;;;11.27;;
4674;SDS011;2351;50.812;12.872;2024-01-06T14:42:21;26.13;;;16.53;;
4674;SDS011;2351;50.812;12.872;2024-01-06T14:44:52;20.30;;;11.63;;
4674;SDS011;2351;50.812;12.872;2024-01-06T14:47:24;20.93;;;11.93;;
4674;SDS011;2351;50.812;12.872;2024-01-06T14:49:57;15.37;;;8.60;;
4674;SDS011;2351;50.812;12.872;2024-01-06T14:52:29;14.83;;;8.67;;
4674;SDS011;2351;50.812;12.872;2024-01-06T14:55:01;17.50;;;10.60;;
4674;SDS011;2351;50.812;12.872;2024-01-06T14:57:32;16.00;;;9.37;;
4674;SDS011;2351;50.812;12.872;2024-01-06T15:00:05;16.80;;;10.57;;
4674;SDS011;2351;50.812;12.872;2024-01-06T15:02:40;20.60;;;12.37;;
4674;SDS011;2351;50.812;12.872;2024-01-06T15:05:17;16.10;;;10.57;;
4674;SDS011;2351;50.812;12.872;2024-01-06T15:07:49;21.67;;;10.40;;
4674;SDS011;2351;50.812;12.872;2024-01-06T15:10:20;17.60;;;10.00;;
4674;SDS011;2351;50.812;12.872;2024-01-06T15:12:52;17.87;;;10.50;;
4674;SDS011;2351;50.812;12.872;2024-01-06T15:15:24;13.80;;;9.20;;
4674;SDS011;2351;50.812;12.872;2024-01-06T15:17:56;12.60;;;7.97;;
4674;SDS011;2351;50.812;12.872;2024-01-06T15:20:29;15.93;;;8.37;;
4674;SDS011;2351;50.812;12.872;2024-01-06T15:23:01;15.77;;;8.60;;
4674;SDS011;2351;50.812;12.872;2024-01-06T15:25:32;16.00;;;9.80;;